Cobleskill, NY

17:19 EDT 02. September 2014 (GMT -0400)
Cobleskill Richmondville | Change Station
CLOSE
Current Station
Isiklikud ilmajaamad
Location: Richmondville, NY
Kõrgus: 965 ft
Nearby Weather Stations

Elev 965 ft 42.65 °N, 74.53 °W | Updated 5 seconds ago

Osaliselt pilves
Osaliselt pilves
87.0 °F
Feels Like 94 °F
Põhja
0.0
Tuul Muutliku suunaga Tuul from Lõunaedela
Gusts 0.0 mph

Täna
High -- | Low -- °F
--% Chance of Precip.
Eile
High -- | Low -- °F
Precip. -- tolli
6:23 AM 7:30 PM
Esimene veerand, 55% visible
Õhurõhk 29.78 tolli
Nähtavus 10.0 miili
Pilved Few 4000 ft
Few 9500 ft
Hajus pilvisus 14000 ft
Hajus pilvisus 25000 ft
Kuumaindeks 94 °F
Kastepunkt 73 °F
Õhuniiskus 63%
Sademed 0.05 tolli
Lume paksus Not available.
UV 2 , kõrgeim võimalik 12
Õietolm 6.80 , kõrgeim võimalik 12
Osoon Hea
PM2.5 Hea
Flu Activity Not available.
METAR KALB 022051Z 18006KT 10SM FEW040 FEW095 SCT140 SCT250 29/19 A2978 RMK AO2 SLP083 60000 T02890189 58018 $

More Conditions Fewer Conditions

Õhurõhk 29.78 tolli
Nähtavus 10.0 miili
Pilved Few 4000 ft
Few 9500 ft
Hajus pilvisus 14000 ft
Hajus pilvisus 25000 ft
Kuumaindeks 94 °F
Kastepunkt 73 °F
Õhuniiskus 63%
Sademed 0.05 tolli
Lume paksus Not available.
UV 2 , kõrgeim võimalik 12
Õietolm 6.80 , kõrgeim võimalik 12
Osoon Hea
PM2.5 Hea
Flu Activity Not available.
METAR KALB 022051Z 18006KT 10SM FEW040 FEW095 SCT140 SCT250 29/19 A2978 RMK AO2 SLP083 60000 T02890189 58018 $

More Conditions Fewer Conditions

10-Day Weather Forecast

Almanac

Astronoomia

Sep. 02, 2014 Tõus Loojang
Tegelik aeg 6:23 AM EDT 7:30 PM EDT
Tsiviilne hämarik 5:54 AM EDT 7:59 PM EDT
Nautiline hämarik 5:20 AM EDT 8:34 PM EDT
Astronoomiline hämarik 4:43 AM EDT 9:10 PM EDT
Kuu 2:15 PM EDT Kuu ei looju
Nähtava valguse kestus 14h 04m
Päeva pikkus
13h 06m
Tomorrow will be 2m 48s shorter.
Esimene veerand, 55% of the Moon is Illuminated
Täna
Esimene veerand
Sep 8
Täis
Sep 15
Viimane veerand
Sep 24
Noor
Okt 1
Esimene veerand

Tänased ekstreemumid

State Highs State Lows

Community

WunderPhotos

Upload Photos

1,749,769 photos uploaded!

Nearby

Õhukvaliteet

  Õhukvaliteet ÕK indeks Reostaja
Eile Hea
OZONE
Eile Hea
PM2.5
Hetkel Hea
PM2.5
Hetkel Hea
OZONE
Teisipäev Hea
PM2.5
Teisipäev Hea
OZONE
Kolmapäev Hea
PM2.5

Lume paksus

Station Depth Kõrgus
Uuest lumest ei ole teatatud

Maavärinate aktiivsus

Linn Distance Mag. Time & Date
No recent earthquake activity has been reported nearby.
Minimum magnitude displayed is 2.5.

Coastal Water Temperatures

Koht Temperatuur
No Stations Reporting

Nearby Weather Stations